sensor_id;sensor_type;location;lat;lon;timestamp;P1;durP1;ratioP1;P2;durP2;ratioP2
75820;SDS011;64454;51.984;9.838;2022-10-17T20:01:08;5.80;;;4.30;;
75820;SDS011;64454;51.984;9.838;2022-10-17T20:03:38;6.80;;;3.80;;
75820;SDS011;64454;51.984;9.838;2022-10-17T20:06:05;6.78;;;4.40;;
75820;SDS011;64454;51.984;9.838;2022-10-17T20:08:34;6.93;;;4.00;;
75820;SDS011;64454;51.984;9.838;2022-10-17T20:11:03;5.88;;;4.20;;
75820;SDS011;64454;51.984;9.838;2022-10-17T20:13:33;6.43;;;4.35;;
75820;SDS011;64454;51.984;9.838;2022-10-17T20:16:02;5.70;;;4.00;;
75820;SDS011;64454;51.984;9.838;2022-10-17T20:18:31;6.13;;;3.83;;
75820;SDS011;64454;51.984;9.838;2022-10-17T20:21:01;6.85;;;4.00;;
75820;SDS011;64454;51.984;9.838;2022-10-17T20:23:30;7.30;;;4.20;;
75820;SDS011;64454;51.984;9.838;2022-10-17T20:26:01;4.37;;;3.97;;
75820;SDS011;64454;51.984;9.838;2022-10-17T20:28:31;5.22;;;4.20;;
75820;SDS011;64454;51.984;9.838;2022-10-17T20:30:58;8.00;;;4.80;;
75820;SDS011;64454;51.984;9.838;2022-10-17T20:33:25;6.60;;;4.00;;
75820;SDS011;64454;51.984;9.838;2022-10-17T20:35:52;5.82;;;3.92;;
75820;SDS011;64454;51.984;9.838;2022-10-17T20:38:19;6.88;;;4.30;;
75820;SDS011;64454;51.984;9.838;2022-10-17T20:40:46;6.28;;;4.75;;
75820;SDS011;64454;51.984;9.838;2022-10-17T20:43:14;7.63;;;4.72;;
75820;SDS011;64454;51.984;9.838;2022-10-17T20:45:42;6.05;;;4.80;;
75820;SDS011;64454;51.984;9.838;2022-10-17T20:48:10;7.53;;;5.15;;
75820;SDS011;64454;51.984;9.838;2022-10-17T20:50:40;7.73;;;5.33;;
75820;SDS011;64454;51.984;9.838;2022-10-17T20:53:08;7.97;;;5.90;;
75820;SDS011;64454;51.984;9.838;2022-10-17T20:55:36;8.88;;;6.07;;
75820;SDS011;64454;51.984;9.838;2022-10-17T20:58:04;7.10;;;5.57;;
75820;SDS011;64454;51.984;9.838;2022-10-17T21:00:32;9.65;;;6.18;;
75820;SDS011;64454;51.984;9.838;2022-10-17T21:03:02;6.85;;;5.70;;
75820;SDS011;64454;51.984;9.838;2022-10-17T21:05:29;7.10;;;5.97;;
75820;SDS011;64454;51.984;9.838;2022-10-17T21:07:56;8.30;;;6.10;;
75820;SDS011;64454;51.984;9.838;2022-10-17T21:10:26;8.02;;;6.80;;
75820;SDS011;64454;51.984;9.838;2022-10-17T21:12:53;7.88;;;5.95;;
75820;SDS011;64454;51.984;9.838;2022-10-17T21:15:20;7.43;;;6.32;;
75820;SDS011;64454;51.984;9.838;2022-10-17T21:17:48;9.27;;;6.45;;
75820;SDS011;64454;51.984;9.838;2022-10-17T21:20:15;9.02;;;6.63;;
75820;SDS011;64454;51.984;9.838;2022-10-17T21:22:42;9.27;;;7.35;;
75820;SDS011;64454;51.984;9.838;2022-10-17T21:25:09;7.60;;;6.80;;
75820;SDS011;64454;51.984;9.838;2022-10-17T21:27:36;8.27;;;7.38;;
75820;SDS011;64454;51.984;9.838;2022-10-17T21:30:03;9.07;;;6.75;;
75820;SDS011;64454;51.984;9.838;2022-10-17T21:32:31;7.38;;;6.47;;
75820;SDS011;64454;51.984;9.838;2022-10-17T21:35:00;7.67;;;6.97;;
75820;SDS011;64454;51.984;9.838;2022-10-17T21:37:26;9.95;;;7.03;;
75820;SDS011;64454;51.984;9.838;2022-10-17T21:39:53;9.23;;;7.13;;
75820;SDS011;64454;51.984;9.838;2022-10-17T21:42:20;9.33;;;7.33;;
75820;SDS011;64454;51.984;9.838;2022-10-17T21:44:47;12.50;;;7.32;;
75820;SDS011;64454;51.984;9.838;2022-10-17T21:47:14;8.55;;;7.65;;
75820;SDS011;64454;51.984;9.838;2022-10-17T21:49:41;9.35;;;7.60;;
75820;SDS011;64454;51.984;9.838;2022-10-17T21:52:09;8.00;;;7.20;;
75820;SDS011;64454;51.984;9.838;2022-10-17T21:54:36;8.52;;;7.28;;
75820;SDS011;64454;51.984;9.838;2022-10-17T21:57:03;8.70;;;7.80;;
75820;SDS011;64454;51.984;9.838;2022-10-17T21:59:30;9.73;;;7.07;;
75820;SDS011;64454;51.984;9.838;2022-10-17T22:01:59;7.50;;;6.70;;
75820;SDS011;64454;51.984;9.838;2022-10-17T22:04:26;8.60;;;7.70;;
75820;SDS011;64454;51.984;9.838;2022-10-17T22:06:53;8.98;;;7.25;;
75820;SDS011;64454;51.984;9.838;2022-10-17T22:09:21;9.75;;;7.85;;
75820;SDS011;64454;51.984;9.838;2022-10-17T22:11:51;9.50;;;8.50;;
75820;SDS011;64454;51.984;9.838;2022-10-17T22:14:21;9.57;;;8.63;;
75820;SDS011;64454;51.984;9.838;2022-10-17T22:16:51;11.00;;;9.70;;
75820;SDS011;64454;51.984;9.838;2022-10-17T22:19:20;9.43;;;8.20;;
75820;SDS011;64454;51.984;9.838;2022-10-17T22:21:49;10.20;;;9.10;;
75820;SDS011;64454;51.984;9.838;2022-10-17T22:24:17;8.65;;;7.75;;
75820;SDS011;64454;51.984;9.838;2022-10-17T22:26:47;8.35;;;7.43;;
75820;SDS011;64454;51.984;9.838;2022-10-17T22:29:14;8.80;;;7.88;;
75820;SDS011;64454;51.984;9.838;2022-10-17T22:31:41;9.10;;;7.90;;
75820;SDS011;64454;51.984;9.838;2022-10-17T22:34:09;10.93;;;8.10;;
75820;SDS011;64454;51.984;9.838;2022-10-17T22:36:38;9.80;;;8.80;;
75820;SDS011;64454;51.984;9.838;2022-10-17T22:39:05;9.82;;;8.82;;
75820;SDS011;64454;51.984;9.838;2022-10-17T22:41:34;9.85;;;8.82;;
75820;SDS011;64454;51.984;9.838;2022-10-17T22:44:01;10.70;;;9.60;;
75820;SDS011;64454;51.984;9.838;2022-10-17T22:46:29;11.93;;;9.95;;
75820;SDS011;64454;51.984;9.838;2022-10-17T22:48:56;11.45;;;9.70;;
75820;SDS011;64454;51.984;9.838;2022-10-17T22:51:23;10.10;;;8.68;;
75820;SDS011;64454;51.984;9.838;2022-10-17T22:53:50;9.90;;;8.90;;
75820;SDS011;64454;51.984;9.838;2022-10-17T22:56:17;10.37;;;9.37;;
75820;SDS011;64454;51.984;9.838;2022-10-17T22:58:48;12.80;;;9.00;;
75820;SDS011;64454;51.984;9.838;2022-10-17T23:01:17;11.25;;;8.80;;
75820;SDS011;64454;51.984;9.838;2022-10-17T23:03:46;11.27;;;8.98;;
75820;SDS011;64454;51.984;9.838;2022-10-17T23:06:13;10.00;;;9.10;;
75820;SDS011;64454;51.984;9.838;2022-10-17T23:08:41;11.30;;;9.68;;
75820;SDS011;64454;51.984;9.838;2022-10-17T23:11:08;10.13;;;9.13;;
75820;SDS011;64454;51.984;9.838;2022-10-17T23:13:36;10.83;;;9.73;;
75820;SDS011;64454;51.984;9.838;2022-10-17T23:16:05;11.45;;;10.20;;
75820;SDS011;64454;51.984;9.838;2022-10-17T23:18:33;10.53;;;9.30;;
75820;SDS011;64454;51.984;9.838;2022-10-17T23:21:00;9.85;;;8.15;;
75820;SDS011;64454;51.984;9.838;2022-10-17T23:23:27;10.63;;;9.23;;
75820;SDS011;64454;51.984;9.838;2022-10-17T23:25:54;9.82;;;8.80;;
75820;SDS011;64454;51.984;9.838;2022-10-17T23:28:28;10.73;;;9.60;;
75820;SDS011;64454;51.984;9.838;2022-10-17T23:30:57;10.27;;;9.15;;
75820;SDS011;64454;51.984;9.838;2022-10-17T23:33:35;11.23;;;9.23;;
75820;SDS011;64454;51.984;9.838;2022-10-17T23:36:05;9.27;;;8.38;;
75820;SDS011;64454;51.984;9.838;2022-10-17T23:38:34;11.40;;;9.73;;
75820;SDS011;64454;51.984;9.838;2022-10-17T23:41:01;11.20;;;9.70;;
75820;SDS011;64454;51.984;9.838;2022-10-17T23:43:28;10.15;;;9.05;;
75820;SDS011;64454;51.984;9.838;2022-10-17T23:45:55;9.97;;;8.97;;
75820;SDS011;64454;51.984;9.838;2022-10-17T23:48:24;10.48;;;9.27;;
75820;SDS011;64454;51.984;9.838;2022-10-17T23:50:51;11.23;;;10.00;;
75820;SDS011;64454;51.984;9.838;2022-10-17T23:53:18;9.60;;;8.70;;
75820;SDS011;64454;51.984;9.838;2022-10-17T23:55:45;13.75;;;9.45;;
75820;SDS011;64454;51.984;9.838;2022-10-17T23:58:12;9.88;;;8.88;;
